Time;durP1;ratioP1;P1;durP2;ratioP2;P2;SDS_P1;SDS_P2;PMS_P1;PMS_P2;Temp;Humidity;BMP_temperature;BMP_pressure;BME280_temperature;BME280_humidity;BME280_pressure;Samples;Min_cycle;Max_cycle;Signal;HPM_P1;HPM_P2
2021/05/01 00:00:08;;;;;;;40.30;18.85;;;;;;;-2.39;77.21;99689.03;1663237;84;21166;-75
2021/05/01 00:02:36;;;;;;;32.15;17.52;;;;;;;-2.39;77.28;99691.59;1668569;83;21601;-75
2021/05/01 00:05:05;;;;;;;29.55;17.82;;;;;;;-2.39;77.32;99683.92;1685446;82;21238;-75
2021/05/01 00:07:32;;;;;;;34.63;16.02;;;;;;;-2.40;77.32;99688.19;1667153;85;21178;-74
2021/05/01 00:09:59;;;;;;;29.63;15.08;;;;;;;-2.39;77.36;99691.59;1672730;83;21220;-74
2021/05/01 00:12:26;;;;;;;24.32;13.88;;;;;;;-2.40;77.44;99683.07;1670023;83;21072;-74
2021/05/01 00:14:52;;;;;;;26.10;14.65;;;;;;;-2.44;77.42;99684.31;1690840;82;21175;-74
2021/05/01 00:17:19;;;;;;;31.68;14.30;;;;;;;-2.49;77.39;99686.44;1689468;82;21200;-75
2021/05/01 00:19:46;;;;;;;29.55;15.53;;;;;;;-2.54;77.35;99682.16;1688323;82;21616;-75
2021/05/01 00:22:13;;;;;;;35.55;15.70;;;;;;;-2.57;77.45;99680.44;1693807;82;21426;-74
2021/05/01 00:24:41;;;;;;;29.55;15.25;;;;;;;-2.59;77.44;99687.23;1692604;82;21196;-74
2021/05/01 00:27:08;;;;;;;32.60;15.60;;;;;;;-2.66;77.37;99689.34;1661650;84;28401;-74
2021/05/01 00:29:35;;;;;;;35.73;16.65;;;;;;;-2.71;77.40;99689.73;1678796;83;21212;-74
2021/05/01 00:32:02;;;;;;;35.13;17.62;;;;;;;-2.73;77.46;99688.86;1678168;83;21170;-74
2021/05/01 00:34:29;;;;;;;38.02;17.25;;;;;;;-2.75;77.57;99693.09;1682977;84;22162;-74
2021/05/01 00:36:56;;;;;;;33.55;18.70;;;;;;;-2.78;77.58;99690.52;1641957;85;21598;-74
2021/05/01 00:39:23;;;;;;;37.35;18.25;;;;;;;-2.80;77.67;99692.20;1687693;82;21175;-74
2021/05/01 00:41:50;;;;;;;33.35;18.25;;;;;;;-2.79;77.71;99688.83;1658378;84;21244;-74
2021/05/01 00:44:17;;;;;;;45.10;23.15;;;;;;;-2.82;77.71;99691.37;1681560;83;21641;-74
2021/05/01 00:46:45;;;;;;;38.28;18.67;;;;;;;-2.81;77.80;99685.40;1678087;83;21231;-74
2021/05/01 00:49:12;;;;;;;;;;;;;;;-2.80;77.80;99680.70;1695284;83;21169;-75
2021/05/01 00:51:39;;;;;;;43.30;19.12;;;;;;;-2.79;77.90;99681.16;1694881;83;20303;-74
2021/05/01 00:54:07;;;;;;;38.28;19.65;;;;;;;-2.78;77.82;99677.75;1675686;83;21794;-74
2021/05/01 00:56:33;;;;;;;;;;;;;;;-2.79;77.89;99679.88;1706581;82;21208;-74
2021/05/01 00:59:00;;;;;;;37.38;18.45;;;;;;;-2.79;77.97;99688.40;1701329;83;21991;-74
2021/05/01 01:01:28;;;;;;;30.62;18.15;;;;;;;-2.80;77.90;99681.98;1692532;84;21211;-74
2021/05/01 01:03:55;;;;;;;;;;;;;;;-2.85;77.86;99681.13;1705812;83;21617;-74
2021/05/01 01:06:22;;;;;;;36.42;19.00;;;;;;;-2.88;78.00;99693.89;1684966;84;21283;-74
2021/05/01 01:08:49;;;;;;;45.78;20.85;;;;;;;-2.94;77.95;99698.11;1701352;82;21199;-75
2021/05/01 01:11:16;;;;;;;41.88;20.62;;;;;;;-2.96;77.97;99702.34;1672340;83;21418;-75
2021/05/01 01:13:43;;;;;;;46.50;20.30;;;;;;;-2.97;77.96;99697.20;1689828;82;21092;-74
2021/05/01 01:16:10;;;;;;;45.00;23.80;;;;;;;-2.98;78.01;99704.02;1704457;82;21161;-74
2021/05/01 01:18:37;;;;;;;46.35;22.60;;;;;;;-2.98;78.07;99704.02;1671675;83;21316;-73
2021/05/01 01:21:06;;;;;;;41.68;22.13;;;;;;;-2.98;77.99;99700.62;1688384;82;21263;-74
2021/05/01 01:23:33;;;;;;;44.70;21.87;;;;;;;-3.00;78.12;99704.42;1691206;83;22089;-74
2021/05/01 01:26:00;;;;;;;43.08;21.93;;;;;;;-3.03;78.07;99703.13;1690792;83;21232;-74
2021/05/01 01:28:28;;;;;;;44.40;21.62;;;;;;;-3.02;78.11;99712.52;1673421;83;21648;-74
2021/05/01 01:30:55;;;;;;;41.77;21.05;;;;;;;-3.00;78.27;99714.64;1686035;82;28278;-75
2021/05/01 01:33:22;;;;;;;44.50;21.57;;;;;;;-2.97;78.18;99713.41;1683345;82;21167;-75
2021/05/01 01:35:49;;;;;;;44.67;22.52;;;;;;;-2.99;78.11;99709.98;1686846;82;21238;-75
2021/05/01 01:38:16;;;;;;;37.60;20.00;;;;;;;-2.99;78.22;99713.82;1698800;82;21251;-74
2021/05/01 01:40:43;;;;;;;;;;;;;;;-2.97;78.34;99713.41;1688558;82;21117;-74
2021/05/01 01:43:10;;;;;;;43.63;21.48;;;;;;;-2.95;78.30;99715.53;1691743;84;20274;-74
2021/05/01 01:45:37;;;;;;;47.08;22.30;;;;;;;-2.99;78.20;99715.52;1701772;82;21189;-75
2021/05/01 01:48:05;;;;;;;46.45;21.95;;;;;;;-3.02;78.21;99720.19;1705030;83;22254;-75
2021/05/01 01:50:32;;;;;;;;;;;;;;;-3.04;78.19;99718.03;1724947;83;21894;-74
2021/05/01 01:52:59;;;;;;;39.30;18.55;;;;;;;-3.09;78.23;99725.23;1688091;83;20286;-74
2021/05/01 01:55:26;;;;;;;40.95;20.40;;;;;;;-3.13;78.24;99729.47;1686401;83;21177;-75
2021/05/01 01:57:53;;;;;;;42.55;21.93;;;;;;;-3.14;78.27;99732.84;1694588;83;21247;-75
2021/05/01 02:00:25;;;;;;;42.83;23.45;;;;;;;-3.17;78.23;99736.22;1684079;82;25712;-75
2021/05/01 02:02:54;;;;;;;46.05;22.13;;;;;;;-3.18;78.28;99737.08;1689618;82;21176;-75
2021/05/01 02:05:22;;;;;;;32.05;16.87;;;;;;;-3.19;78.29;99737.08;1687606;82;21045;-75
2021/05/01 02:07:49;;;;;;;30.30;17.50;;;;;;;-3.24;78.23;99731.08;1689442;83;21342;-74
2021/05/01 02:10:18;;;;;;;29.57;16.70;;;;;;;-3.29;78.22;99734.00;1710563;81;21311;-74
2021/05/01 02:12:45;;;;;;;34.65;15.85;;;;;;;-3.34;78.20;99735.66;1693012;82;21207;-75
2021/05/01 02:15:19;;;;;;;34.33;17.05;;;;;;;-3.37;78.29;99727.11;1691732;84;21208;-75
2021/05/01 02:17:50;;;;;;;42.00;19.73;;;;;;;-3.35;78.38;99730.97;1692506;82;21617;-74
2021/05/01 02:20:22;;;;;;;39.35;19.23;;;;;;;-3.35;78.42;99719.91;1690090;82;21182;-74
2021/05/01 02:22:50;;;;;;;36.08;18.67;;;;;;;-3.34;78.54;99712.67;1691715;82;21190;-74
2021/05/01 02:25:17;;;;;;;42.62;19.15;;;;;;;-3.35;78.52;99715.66;1702969;81;21605;-74
2021/05/01 02:27:45;;;;;;;36.95;19.27;;;;;;;-3.31;78.60;99708.87;1675685;83;21628;-73
2021/05/01 02:30:17;;;;;;;39.00;18.70;;;;;;;-3.30;78.47;99710.60;1686073;83;21017;-74
2021/05/01 02:32:45;;;;;;;34.73;18.57;;;;;;;-3.29;78.65;99704.64;1710242;81;21620;-74
2021/05/01 02:35:19;;;;;;;31.97;18.52;;;;;;;-3.27;78.70;99708.07;1687034;82;21631;-74
2021/05/01 02:37:46;;;;;;;36.90;18.37;;;;;;;-3.27;78.64;99696.58;1695555;82;21255;-74
2021/05/01 02:40:16;;;;;;;31.62;16.55;;;;;;;-3.24;78.66;99697.88;1709239;81;21800;-74
2021/05/01 02:42:45;;;;;;;34.15;16.10;;;;;;;-3.26;78.63;99699.55;1705765;81;21203;-74
2021/05/01 02:45:16;;;;;;;27.87;14.40;;;;;;;-3.26;78.63;99697.00;1688779;82;21610;-74
2021/05/01 02:47:43;;;;;;;34.50;15.32;;;;;;;-3.26;78.61;99700.41;1691849;82;21222;-74
2021/05/01 02:50:13;;;;;;;36.00;15.80;;;;;;;-3.25;78.62;99708.91;1685163;84;21424;-74
2021/05/01 02:52:41;;;;;;;31.42;15.08;;;;;;;-3.25;78.62;99708.91;1691503;84;21262;-74
2021/05/01 02:55:10;;;;;;;29.80;13.48;;;;;;;-3.22;78.66;99712.77;1712073;83;26719;-74
2021/05/01 02:57:38;;;;;;;29.35;12.90;;;;;;;-3.21;78.64;99713.22;1682290;84;21223;-74
2021/05/01 03:00:13;;;;;;;27.35;14.33;;;;;;;-3.20;78.61;99711.09;1691811;83;21206;-74
2021/05/01 03:02:40;;;;;;;28.98;14.90;;;;;;;-3.21;78.67;99710.67;1675030;84;21285;-73
2021/05/01 03:05:09;;;;;;;30.23;16.95;;;;;;;-3.18;78.79;99710.69;1662640;83;21279;-74
2021/05/01 03:07:37;;;;;;;32.70;16.23;;;;;;;-3.11;78.90;99707.32;1707111;82;21169;-74
2021/05/01 03:10:12;;;;;;;31.48;15.48;;;;;;;-3.05;78.88;99715.06;1709384;82;21633;-74
2021/05/01 03:12:39;;;;;;;32.03;15.88;;;;;;;-3.01;78.77;99711.67;1714545;82;21234;-74
2021/05/01 03:15:08;;;;;;;27.65;15.00;;;;;;;-2.96;78.91;99714.27;1700574;82;21230;-74
2021/05/01 03:17:37;;;;;;;28.27;14.65;;;;;;;-2.93;78.76;99715.13;1710278;82;21199;-74
2021/05/01 03:20:06;;;;;;;32.98;14.38;;;;;;;-2.91;78.68;99717.72;1695061;82;21210;-73
2021/05/01 03:22:34;;;;;;;26.45;13.10;;;;;;;-2.85;78.75;99719.45;1706897;82;21755;-74
2021/05/01 03:25:02;;;;;;;31.15;15.15;;;;;;;-2.76;78.83;99720.36;1680368;84;21211;-74
2021/05/01 03:27:29;;;;;;;28.70;14.85;;;;;;;-2.69;78.78;99713.58;1710880;83;21418;-73
2021/05/01 03:29:56;;;;;;;37.80;17.98;;;;;;;-2.57;78.87;99715.38;1683744;83;21238;-74
2021/05/01 03:32:23;;;;;;;43.98;18.35;;;;;;;-2.06;79.64;99716.02;1704075;83;21210;-74
2021/05/01 03:34:50;;;;;;;39.38;19.00;;;;;;;-1.44;79.28;99714.89;1682876;83;21235;-74
2021/05/01 03:37:17;;;;;;;41.95;19.50;;;;;;;-0.87;79.12;99705.48;1695882;82;21218;-74
2021/05/01 03:39:44;;;;;;;40.45;19.35;;;;;;;0.12;79.59;99713.32;1696125;82;21297;-74
2021/05/01 03:42:10;;;;;;;41.13;20.02;;;;;;;0.89;78.62;99706.38;1689158;83;21191;-74
2021/05/01 03:44:37;;;;;;;40.08;18.65;;;;;;;1.47;78.22;99716.12;1697708;82;21150;-75
2021/05/01 03:47:04;;;;;;;39.90;19.82;;;;;;;1.85;77.37;99720.02;1696311;83;21255;-74
2021/05/01 03:49:31;;;;;;;37.35;19.60;;;;;;;1.82;76.75;99726.49;1713334;81;21201;-75
2021/05/01 03:51:58;;;;;;;39.50;20.02;;;;;;;1.91;76.93;99726.81;1680262;83;21239;-75
2021/05/01 03:54:25;;;;;;;32.30;19.30;;;;;;;1.80;76.49;99714.06;1683126;83;21061;-75
2021/05/01 03:56:52;;;;;;;34.10;17.95;;;;;;;1.63;76.48;99712.13;1694639;82;21175;-75
2021/05/01 03:59:19;;;;;;;37.25;17.60;;;;;;;1.41;76.43;99705.06;1709488;81;21641;-75
2021/05/01 04:01:46;;;;;;;27.80;16.00;;;;;;;1.32;76.68;99706.86;1692530;84;21200;-75
2021/05/01 04:04:13;;;;;;;33.30;16.00;;;;;;;1.54;76.94;99710.06;1688412;82;26939;-75
2021/05/01 04:06:40;;;;;;;35.38;15.98;;;;;;;1.50;76.29;99712.67;1692279;82;21227;-75
2021/05/01 04:09:08;;;;;;;30.52;15.05;;;;;;;1.43;76.53;99704.18;1695609;83;21251;-75
2021/05/01 04:11:34;;;;;;;28.00;14.73;;;;;;;1.43;76.57;99711.90;1705308;82;21194;-75
2021/05/01 04:14:02;;;;;;;38.83;14.75;;;;;;;1.51;76.73;99715.25;1700182;82;21215;-75
2021/05/01 04:16:29;;;;;;;30.02;15.72;;;;;;;1.65;76.72;99709.92;1700651;81;21157;-75
2021/05/01 04:18:56;;;;;;;26.35;14.15;;;;;;;1.96;76.79;99706.98;1675499;83;21253;-75
2021/05/01 04:21:23;;;;;;;25.48;14.07;;;;;;;2.37;76.54;99711.59;1681070;82;21206;-75
2021/05/01 04:23:50;;;;;;;31.50;12.88;;;;;;;2.65;76.19;99706.04;1689550;82;28994;-75
2021/05/01 04:26:20;;;;;;;23.35;12.55;;;;;;;3.01;76.47;99714.92;1705242;81;21257;-75
2021/05/01 04:28:48;;;;;;;28.20;13.10;;;;;;;3.25;76.38;99711.08;1693122;83;22214;-75
2021/05/01 04:31:15;;;;;;;22.17;13.45;;;;;;;3.43;76.07;99715.50;1713805;81;21048;-75
2021/05/01 04:33:42;;;;;;;22.70;12.85;;;;;;;3.62;75.75;99719.89;1718085;83;25045;-75
2021/05/01 04:36:09;;;;;;;23.98;12.13;;;;;;;3.67;75.80;99721.91;1716429;83;21215;-75
2021/05/01 04:38:39;;;;;;;29.65;12.45;;;;;;;3.87;75.83;99722.40;1723681;81;21135;-75
2021/05/01 04:41:06;;;;;;;19.45;11.30;;;;;;;4.13;75.82;99717.98;1705196;82;21211;-75
2021/05/01 04:43:34;;;;;;;20.57;10.82;;;;;;;4.41;75.62;99723.41;1697403;82;21105;-75
2021/05/01 04:46:00;;;;;;;;;;;;;;;4.40;74.95;99722.16;1702863;82;21104;-75
2021/05/01 04:48:31;;;;;;;18.70;11.28;;;;;;;4.14;74.87;99722.25;1711128;81;20493;-75
2021/05/01 04:50:58;;;;;;;24.25;12.20;;;;;;;4.30;75.34;99717.62;1685327;82;21056;-75
2021/05/01 04:53:25;;;;;;;19.48;11.40;;;;;;;4.54;75.71;99725.29;1714200;83;22152;-76
2021/05/01 04:55:52;;;;;;;13.43;9.13;;;;;;;5.28;75.82;99724.80;1695022;83;21669;-76
2021/05/01 04:58:19;;;;;;;22.67;11.78;;;;;;;5.85;74.89;99724.13;1685662;84;21680;-77
2021/05/01 05:00:46;;;;;;;14.10;8.70;;;;;;;6.42;75.27;99715.59;1688481;84;21219;-76
2021/05/01 05:03:13;;;;;;;21.70;9.70;;;;;;;7.30;74.64;99713.63;1714127;83;20997;-77
2021/05/01 05:05:40;;;;;;;16.02;10.45;;;;;;;7.94;73.78;99714.87;1695349;82;21147;-77
2021/05/01 05:08:07;;;;;;;14.28;10.05;;;;;;;8.72;74.36;99710.16;1692494;83;21143;-77
2021/05/01 05:10:34;;;;;;;15.28;9.05;;;;;;;9.40;73.72;99707.38;1710122;82;21009;-77
2021/05/01 05:13:01;;;;;;;15.85;9.43;;;;;;;9.82;72.92;99707.73;1689444;83;21133;-77
2021/05/01 05:15:29;;;;;;;14.98;9.38;;;;;;;10.47;73.54;99709.14;1715202;81;21008;-77
2021/05/01 05:17:56;;;;;;;13.60;8.43;;;;;;;10.71;72.77;99707.58;1709748;83;21154;-77
2021/05/01 05:20:23;;;;;;;;;;;;;;;10.85;72.97;99709.52;1721917;82;21022;-77
2021/05/01 05:22:50;;;;;;;;;;;;;;;10.85;71.23;99702.53;1710439;82;20495;-76
2021/05/01 05:25:17;;;;;;;14.30;8.53;;;;;;;10.71;71.34;99702.35;1710762;82;20777;-77
2021/05/01 05:27:45;;;;;;;13.68;8.33;;;;;;;11.11;72.64;99701.23;1710694;82;20954;-75
2021/05/01 05:30:13;;;;;;;9.43;6.35;;;;;;;11.84;73.07;99704.46;1691573;83;21074;-75
2021/05/01 05:32:41;;;;;;;4.80;3.17;;;;;;;12.33;72.45;99706.73;1694642;83;21044;-75
2021/05/01 05:35:09;;;;;;;7.28;3.85;;;;;;;12.52;72.12;99706.11;1707220;82;21049;-75
2021/05/01 05:37:36;;;;;;;6.35;3.67;;;;;;;12.85;72.32;99710.36;1676407;83;21065;-75
2021/05/01 05:40:04;;;;;;;;;;;;;;;13.37;72.73;99702.14;1717898;83;21040;-75
2021/05/01 05:42:33;;;;;;;2.98;1.32;;;;;;;13.75;71.50;99705.55;1691116;84;21209;-75
2021/05/01 05:45:00;;;;;;;2.50;1.35;;;;;;;13.62;71.18;99711.55;1712258;83;21526;-75
2021/05/01 05:47:27;;;;;;;;;;;;;;;13.35;71.11;99710.09;1685317;82;21282;-75
2021/05/01 05:49:54;;;;;;;1.85;1.02;;;;;;;12.91;69.89;99715.25;1689722;83;20160;-76
2021/05/01 05:52:20;;;;;;;2.12;1.35;;;;;;;12.59;70.36;99714.45;1688242;83;21668;-75
2021/05/01 05:54:48;;;;;;;1.95;1.25;;;;;;;12.21;69.85;99720.00;1694165;83;21217;-73
2021/05/01 05:57:15;;;;;;;3.08;1.20;;;;;;;12.01;69.48;99721.08;1670522;83;21712;-75
2021/05/01 05:59:43;;;;;;;1.72;1.35;;;;;;;11.93;69.58;99727.17;1707953;82;21700;-71
2021/05/01 06:02:15;;;;;;;2.65;1.40;;;;;;;11.99;69.20;99724.27;1710554;82;21100;-73
2021/05/01 06:05:16;;;;;;;2.05;1.20;;;;;;;12.06;68.87;99713.83;1710638;81;21155;-73
2021/05/01 06:07:52;;;;;;;1.82;1.07;;;;;;;12.00;68.34;99719.40;1692463;83;21225;-73
2021/05/01 06:10:21;;;;;;;1.52;1.12;;;;;;;11.82;67.62;99722.03;1695431;83;21250;-72
2021/05/01 06:12:48;;;;;;;3.37;1.05;;;;;;;11.56;67.23;99719.91;1690173;83;20989;-71
2021/05/01 06:15:17;;;;;;;1.42;1.20;;;;;;;11.46;66.56;99711.70;1684550;84;21275;-70
2021/05/01 06:17:45;;;;;;;2.42;1.40;;;;;;;11.46;65.95;99711.70;1697794;82;21173;-72
2021/05/01 06:20:14;;;;;;;3.08;1.10;;;;;;;11.42;65.45;99710.98;1694826;82;21276;-73
2021/05/01 06:22:42;;;;;;;2.37;1.45;;;;;;;11.54;65.73;99716.52;1700155;82;21033;-72
2021/05/01 06:25:12;;;;;;;2.25;1.27;;;;;;;11.61;65.08;99715.29;1687434;83;21050;-70
2021/05/01 06:27:39;;;;;;;3.33;1.12;;;;;;;11.69;64.80;99725.36;1685920;82;21021;-75
2021/05/01 06:30:10;;;;;;;1.75;0.82;;;;;;;11.59;63.93;99717.13;1688174;83;21003;-74
2021/05/01 06:32:38;;;;;;;3.30;1.30;;;;;;;11.13;62.46;99719.47;1690304;83;21367;-75
2021/05/01 06:35:06;;;;;;;1.37;0.70;;;;;;;10.57;61.61;99730.89;1683291;83;20989;-75
2021/05/01 06:37:33;;;;;;;2.22;1.25;;;;;;;10.21;60.80;99729.03;1720102;81;21013;-75
2021/05/01 06:40:06;;;;;;;;;;;;;;;9.92;60.38;99731.66;1714050;81;21137;-75
2021/05/01 06:42:36;;;;;;;1.95;0.90;;;;;;;9.81;59.73;99730.81;1707879;82;20164;-75
2021/05/01 06:45:12;;;;;;;1.35;0.75;;;;;;;9.94;60.06;99729.37;1689053;81;21211;-75
2021/05/01 06:48:01;;;;;;;1.50;0.88;;;;;;;10.16;59.83;99728.38;1691219;83;21692;-75
2021/05/01 06:50:30;;;;;;;1.22;0.80;;;;;;;10.33;58.39;99727.18;1697012;82;21002;-75
2021/05/01 06:52:58;;;;;;;1.67;1.17;;;;;;;10.22;57.56;99728.09;1681594;82;21028;-74
2021/05/01 06:55:29;;;;;;;1.27;0.90;;;;;;;10.18;56.96;99729.17;1695530;82;21034;-75
2021/05/01 06:57:58;;;;;;;1.27;0.85;;;;;;;10.02;55.89;99721.17;1699484;82;21535;-75
2021/05/01 07:00:27;;;;;;;1.92;1.00;;;;;;;9.91;55.60;99724.72;1695532;82;21023;-75
2021/05/01 07:03:04;;;;;;;1.27;0.90;;;;;;;9.80;55.19;99726.50;1713257;81;21041;-74
2021/05/01 07:05:32;;;;;;;2.65;1.37;;;;;;;9.74;54.95;99728.08;1714867;81;20980;-75
2021/05/01 07:08:00;;;;;;;2.20;1.20;;;;;;;9.63;54.48;99724.20;1685595;83;21025;-74
2021/05/01 07:10:27;;;;;;;1.32;0.90;;;;;;;9.50;54.24;99728.23;1687308;83;21199;-79
2021/05/01 07:12:54;;;;;;;2.35;1.32;;;;;;;9.47;54.08;99727.06;1687813;83;21183;-74
2021/05/01 07:15:22;;;;;;;2.60;1.20;;;;;;;9.36;52.63;99739.23;1687039;83;20982;-73
2021/05/01 07:17:53;;;;;;;2.83;1.30;;;;;;;9.09;52.68;99736.01;1690813;83;21092;-73
2021/05/01 07:20:22;;;;;;;1.82;1.10;;;;;;;8.66;52.04;99730.39;1691506;83;21107;-75
2021/05/01 07:22:53;;;;;;;1.52;1.10;;;;;;;8.32;52.33;99735.56;1696283;83;21213;-75
2021/05/01 07:25:22;;;;;;;1.85;1.10;;;;;;;8.15;52.19;99717.11;1685458;83;21497;-75
2021/05/01 07:28:08;;;;;;;2.60;0.95;;;;;;;7.97;52.48;99738.15;1705525;82;21663;-72
2021/05/01 07:30:42;;;;;;;1.80;1.22;;;;;;;7.84;52.03;99738.61;1700765;82;21621;-75
2021/05/01 07:33:27;;;;;;;0.88;0.60;;;;;;;7.82;52.82;99732.60;1685861;83;21062;-74
2021/05/01 07:35:58;;;;;;;1.15;0.40;;;;;;;7.87;51.74;99737.65;1711897;81;21211;-72
2021/05/01 07:38:27;;;;;;;0.72;0.40;;;;;;;7.71;51.21;99736.49;1662960;83;21174;-75
2021/05/01 07:40:58;;;;;;;2.62;0.70;;;;;;;7.56;49.89;99737.85;1719161;81;21147;-75
2021/05/01 07:43:29;;;;;;;1.70;0.45;;;;;;;7.44;50.42;99738.28;1718700;81;21016;-75
2021/05/01 07:46:05;;;;;;;1.05;0.50;;;;;;;7.45;50.69;99739.97;1692559;83;20941;-74
2021/05/01 07:48:28;;;;;;;1.72;0.55;;;;;;;7.63;50.50;99734.16;1699579;82;22270;-74
2021/05/01 07:50:55;;;;;;;2.45;0.88;;;;;;;7.67;50.01;99738.33;1695675;82;21131;-74
2021/05/01 07:53:23;;;;;;;0.78;0.50;;;;;;;7.62;49.95;99727.27;1699058;82;21049;-72
2021/05/01 07:55:50;;;;;;;0.70;0.40;;;;;;;7.73;50.10;99730.34;1705107;82;21051;-74
2021/05/01 07:58:17;;;;;;;2.25;0.60;;;;;;;7.77;49.39;99726.72;1667712;82;21160;-73
2021/05/01 08:00:46;;;;;;;0.95;0.50;;;;;;;7.79;48.84;99735.31;1695391;82;22130;-73
2021/05/01 08:03:15;;;;;;;1.70;1.05;;;;;;;7.82;48.77;99745.60;1697429;82;21537;-74
2021/05/01 08:05:42;;;;;;;1.42;0.70;;;;;;;7.85;48.63;99732.48;1696876;82;21972;-74
2021/05/01 08:08:09;;;;;;;1.15;0.72;;;;;;;7.98;48.79;99732.03;1704490;82;20985;-73
2021/05/01 08:10:36;;;;;;;1.67;1.00;;;;;;;8.08;48.78;99746.41;1697330;82;21091;-72
2021/05/01 08:13:03;;;;;;;1.17;0.60;;;;;;;8.08;48.74;99737.31;1710989;81;21199;-71
2021/05/01 08:15:33;;;;;;;1.17;0.62;;;;;;;8.13;48.64;99739.29;1681463;83;21586;-72
2021/05/01 08:18:00;;;;;;;0.95;0.45;;;;;;;8.21;48.00;99748.13;1681932;83;21668;-74
2021/05/01 08:20:28;;;;;;;2.52;0.90;;;;;;;8.20;47.93;99742.50;1685795;83;21074;-74
2021/05/01 08:22:56;;;;;;;1.65;0.60;;;;;;;8.15;48.11;99742.69;1688963;83;21058;-76
2021/05/01 08:25:24;;;;;;;0.93;0.78;;;;;;;8.27;47.94;99733.12;1686708;83;21623;-77
2021/05/01 08:27:51;;;;;;;;;;;;;;;8.21;47.27;99737.25;1709020;81;22017;-76
2021/05/01 08:30:18;;;;;;;1.00;0.53;;;;;;;8.20;46.92;99742.05;1680307;83;20231;-76
2021/05/01 08:32:46;;;;;;;;;;;;;;;8.29;46.22;99735.68;1682761;83;21591;-76
2021/05/01 08:35:15;;;;;;;2.17;0.68;;;;;;;8.39;47.00;99744.00;1684549;83;20173;-75
2021/05/01 08:37:43;;;;;;;1.00;0.62;;;;;;;8.52;46.29;99733.52;1710395;81;21271;-75
2021/05/01 08:40:14;;;;;;;5.08;0.68;;;;;;;8.58;46.19;99746.30;1683811;83;21080;-75
2021/05/01 08:42:44;;;;;;;0.42;0.35;;;;;;;8.70;45.21;99736.70;1706368;81;21551;-75
2021/05/01 08:45:14;;;;;;;2.15;0.53;;;;;;;8.76;45.81;99736.06;1696782;82;21140;-75
2021/05/01 08:47:45;;;;;;;4.33;0.55;;;;;;;8.63;44.33;99743.52;1685512;82;21016;-75
2021/05/01 08:50:30;;;;;;;2.30;0.47;;;;;;;8.33;44.02;99753.31;1688387;82;22187;-76
2021/05/01 08:53:00;;;;;;;0.85;0.47;;;;;;;8.20;43.94;99747.25;1712297;81;20973;-73
2021/05/01 08:55:34;;;;;;;1.60;0.60;;;;;;;8.21;44.33;99754.16;1682596;83;21011;-76
2021/05/01 08:58:01;;;;;;;0.42;0.40;;;;;;;8.19;44.31;99762.47;1681053;83;21105;-76
2021/05/01 09:00:28;;;;;;;0.70;0.40;;;;;;;8.25;44.03;99753.59;1687418;83;21546;-74
2021/05/01 09:02:56;;;;;;;0.70;0.57;;;;;;;8.23;43.67;99748.46;1686646;83;22198;-77
2021/05/01 09:05:25;;;;;;;2.05;0.60;;;;;;;8.21;43.24;99763.27;1671571;84;21022;-76
2021/05/01 09:07:52;;;;;;;0.98;0.47;;;;;;;8.11;43.11;99759.30;1691746;82;21029;-76
2021/05/01 09:10:19;;;;;;;1.75;0.40;;;;;;;8.16;43.34;99759.98;1705194;81;21019;-75
2021/05/01 09:12:48;;;;;;;1.20;0.53;;;;;;;8.16;42.76;99756.54;1681526;83;21100;-77
2021/05/01 09:15:31;;;;;;;1.17;0.47;;;;;;;8.06;42.93;99756.01;1685846;83;21228;-77
2021/05/01 09:18:01;;;;;;;0.30;0.30;;;;;;;8.14;42.53;99761.78;1690451;83;21164;-73
2021/05/01 09:20:28;;;;;;;0.60;0.45;;;;;;;8.30;42.91;99744.70;1683567;83;21001;-74
2021/05/01 09:23:05;;;;;;;0.72;0.50;;;;;;;8.39;42.93;99746.60;1686366;83;26435;-75
2021/05/01 09:25:54;;;;;;;1.05;0.50;;;;;;;8.48;42.55;99745.78;1671999;83;21120;-75
2021/05/01 09:28:22;;;;;;;1.55;0.42;;;;;;;8.59;42.91;99755.79;1679651;83;21608;-75
2021/05/01 09:31:08;;;;;;;2.98;0.50;;;;;;;8.73;42.32;99739.63;1689898;83;20981;-74
2021/05/01 09:33:42;;;;;;;2.37;0.65;;;;;;;8.85;42.55;99750.02;1680069;83;21168;-74
2021/05/01 09:36:24;;;;;;;0.80;0.62;;;;;;;8.97;42.22;99741.73;1712997;83;21174;-76
2021/05/01 09:39:07;;;;;;;1.75;0.60;;;;;;;9.18;40.53;99752.55;1674380;83;20987;-77
2021/05/01 09:41:38;;;;;;;3.52;1.22;;;;;;;9.10;41.12;99753.78;1711635;81;22274;-78
2021/05/01 09:44:16;;;;;;;1.40;0.53;;;;;;;9.02;41.17;99764.96;1712183;82;21557;-76
2021/05/01 09:46:50;;;;;;;0.50;0.40;;;;;;;8.96;41.15;99741.31;1706049;82;22030;-84
2021/05/01 09:49:31;;;;;;;1.12;0.47;;;;;;;8.95;41.03;99742.23;1676476;83;21119;-83
2021/05/01 09:52:05;;;;;;;0.68;0.50;;;;;;;8.94;40.02;99745.77;1673226;83;21053;-72
2021/05/01 09:54:35;;;;;;;1.20;0.95;;;;;;;8.94;40.42;99750.51;1685033;83;22198;-76
2021/05/01 09:57:11;;;;;;;0.65;0.47;;;;;;;8.91;40.42;99741.98;1681885;84;21199;-79
2021/05/01 09:59:45;;;;;;;0.78;0.60;;;;;;;8.86;39.84;99745.22;1685037;83;21083;-80
2021/05/01 10:02:15;;;;;;;1.00;0.45;;;;;;;8.80;39.48;99731.15;1706956;81;21245;-79
2021/05/01 10:05:03;;;;;;;1.70;0.53;;;;;;;8.80;39.52;99745.47;1689274;82;21065;-73
2021/05/01 10:07:32;;;;;;;1.05;0.50;;;;;;;8.88;39.66;99733.84;1692149;82;21287;-77
2021/05/01 10:10:00;;;;;;;1.98;0.50;;;;;;;8.95;39.55;99730.06;1688663;82;21138;-77
2021/05/01 10:12:38;;;;;;;0.93;0.57;;;;;;;8.90;38.72;99737.20;1708968;81;21156;-77
2021/05/01 10:15:23;;;;;;;0.98;0.50;;;;;;;8.90;38.63;99723.34;1694896;83;21629;-77
2021/05/01 10:17:51;;;;;;;1.45;0.80;;;;;;;8.90;38.39;99720.73;1683693;83;20926;-76
2021/05/01 10:20:21;;;;;;;0.98;0.45;;;;;;;9.02;38.29;99730.67;1666414;84;21165;-74
2021/05/01 10:22:50;;;;;;;2.15;0.60;;;;;;;9.08;38.10;99722.61;1703874;81;21039;-74
2021/05/01 10:25:28;;;;;;;1.20;0.50;;;;;;;9.17;38.04;99719.61;1709070;81;21017;-73
2021/05/01 10:28:04;;;;;;;3.00;0.50;;;;;;;9.27;37.88;99711.41;1686795;83;21005;-80
2021/05/01 10:30:37;;;;;;;0.80;0.50;;;;;;;9.33;37.01;99711.17;1672887;84;20988;-78
2021/05/01 10:36:23;;;;;;;1.50;0.60;;;;;;;9.24;35.96;99708.93;1684063;83;21214;-79
2021/05/01 10:39:06;;;;;;;1.47;0.50;;;;;;;9.25;36.32;99710.64;1678889;83;21136;-76
2021/05/01 10:41:35;;;;;;;1.20;0.57;;;;;;;9.22;35.05;99710.77;1684093;83;21480;-79
2021/05/01 10:44:06;;;;;;;1.05;0.57;;;;;;;9.08;35.75;99713.48;1689297;83;21690;-76
2021/05/01 10:46:39;;;;;;;0.53;0.42;;;;;;;9.01;35.78;99702.92;1695221;82;22678;-76
2021/05/01 10:49:10;;;;;;;1.05;0.60;;;;;;;9.05;36.40;99703.66;1688947;82;21000;-78
2021/05/01 10:51:44;;;;;;;0.90;0.55;;;;;;;9.07;35.66;99703.13;1682011;83;20995;-78
2021/05/01 10:54:21;;;;;;;1.62;0.78;;;;;;;9.10;35.42;99684.33;1643388;85;21122;-78
2021/05/01 10:56:51;;;;;;;1.15;0.65;;;;;;;9.03;35.22;99697.20;1664021;85;21512;-77
2021/05/01 10:59:27;;;;;;;1.37;0.68;;;;;;;8.98;35.03;99687.87;1680471;84;22958;-78
2021/05/01 11:01:57;;;;;;;0.70;0.40;;;;;;;9.06;35.33;99680.14;1661176;84;21056;-74
2021/05/01 11:04:31;;;;;;;0.47;0.40;;;;;;;9.11;34.92;99680.80;1675005;83;21094;-73
2021/05/01 11:07:39;;;;;;;1.52;0.70;;;;;;;9.13;34.31;99675.08;1661680;85;21060;-74
2021/05/01 11:10:10;;;;;;;0.90;0.80;;;;;;;9.13;33.99;99665.96;1680644;84;22605;-76
2021/05/01 11:12:40;;;;;;;0.75;0.55;;;;;;;9.24;34.99;99669.85;1677549;84;21279;-78
2021/05/01 11:15:12;;;;;;;1.45;0.65;;;;;;;9.30;34.94;99656.55;1664398;84;21049;-78
2021/05/01 11:18:08;;;;;;;1.02;0.62;;;;;;;9.35;34.71;99661.12;1668370;84;21048;-75
2021/05/01 11:20:36;;;;;;;0.85;0.62;;;;;;;9.34;35.17;99655.53;1675745;83;21537;-77
2021/05/01 11:23:04;;;;;;;1.82;0.88;;;;;;;9.46;35.01;99664.10;1672038;85;21008;-73
2021/05/01 11:25:32;;;;;;;;;;;;;;;9.33;34.67;99670.78;1673749;83;22181;-74
2021/05/01 11:27:59;;;;;;;1.45;0.60;;;;;;;9.33;34.44;99664.27;1676206;84;20153;-70
2021/05/01 11:30:28;;;;;;;1.62;0.68;;;;;;;9.27;34.66;99656.69;1672687;83;20943;-73
2021/05/01 11:32:56;;;;;;;1.25;0.72;;;;;;;9.21;34.62;99659.56;1673690;83;21143;-74
2021/05/01 11:35:27;;;;;;;1.37;0.55;;;;;;;9.15;34.31;99654.16;1677149;83;21089;-75
2021/05/01 11:37:57;;;;;;;0.62;0.53;;;;;;;9.04;34.28;99649.86;1678499;83;21277;-74
2021/05/01 11:40:28;;;;;;;2.70;0.62;;;;;;;9.07;34.51;99655.78;1682104;83;21073;-72
2021/05/01 11:42:57;;;;;;;1.95;0.60;;;;;;;9.15;34.70;99656.30;1680593;83;21032;-74
2021/05/01 11:45:33;;;;;;;1.72;0.68;;;;;;;9.30;34.45;99656.55;1673415;84;21044;-74
2021/05/01 11:48:04;;;;;;;1.60;0.70;;;;;;;9.30;34.30;99653.95;1666390;84;21129;-74